Tetsuryumaru — JD3524 — position and weather

sailwx.info

Track history (hours):
 
Tides and Currents Weather Stations Pressure Air Temp Water Temp Dewpoint Dewpoint Depression Visibility Wind Speed Wind Dir Waves Ship Positions

Tetsuryumaru

Last reported at 2018-Feb-20 06:31 UTC. Time now 2018-Feb-20 07:24 UTC.
Position N 34°05' E 132°42'.

Length 60 m.

Type: Cargo ship. MMSI: 431004505.

Date/timePositionNaut miles runAvg speedWind from/ knotsBaromVisibWave heightAir tempDewpointWater temp
2018-Feb-20 06:31N 34°05' E 132°42'010.6
2018-Feb-20 06:29N 34°05' E 132°42'510.3
2018-Feb-20 05:59N 34°01' E 132°37'41 9.2
2018-Feb-20 01:35N 33°56' E 131°48'110.7
2018-Feb-20 01:27N 33°57' E 131°47'4 8.5
2018-Feb-20 00:56N 34°01' E 131°46'2 0.2
2018-Feb-19 13:34N 34°03' E 131°47'0 1.9
2018-Feb-19 13:25N 34°03' E 131°47'4 9.2
2018-Feb-19 12:59N 33°59' E 131°45'4310.0
2018-Feb-19 08:43N 34°01' E 132°36'312.5
2018-Feb-19 08:30N 34°02' E 132°39'105 3.1
2018-Feb-17 22:40N 34°42' E 134°37'311.1
2018-Feb-17 22:24N 34°42' E 134°40'7 0.6
2018-Feb-17 11:21N 34°43' E 134°48'1 1.5
2018-Feb-17 10:22N 34°42' E 134°50'0 0.1
2018-Feb-17 09:58N 34°42' E 134°50'5 9.3
2018-Feb-17 09:26N 34°38' E 134°54'511.1
2018-Feb-17 09:00N 34°38' E 134°60'5 8.9
2018-Feb-17 08:30N 34°36' E 135°05'510.1
2018-Feb-17 08:00N 34°37' E 135°11'510.4
2018-Feb-17 07:30N 34°38' E 135°17'510.9
2018-Feb-17 07:00N 34°41' E 135°23'1 1.8
2018-Feb-17 06:17N 34°42' E 135°24'0 0.0
2018-Feb-17 05:59N 34°42' E 135°24'0 0.0
2018-Feb-17 05:29N 34°42' E 135°24'0 0.0
2018-Feb-17 04:59N 34°42' E 135°24'0 0.0
2018-Feb-17 04:29N 34°42' E 135°24'0 0.0
2018-Feb-17 03:59N 34°42' E 135°24'0 0.0
2018-Feb-17 03:29N 34°42' E 135°24'0 0.0
2018-Feb-17 02:59N 34°42' E 135°24'0 0.0
2018-Feb-17 02:29N 34°42' E 135°24'0 0.0
2018-Feb-17 01:59N 34°42' E 135°24'0 0.0
2018-Feb-17 01:29N 34°42' E 135°24'0 0.0
2018-Feb-17 00:50N 34°42' E 135°24'0 0.0
2018-Feb-17 00:17N 34°42' E 135°24'0 0.0
2018-Feb-16 23:59N 34°42' E 135°24'0 0.0
2018-Feb-16 23:29N 34°42' E 135°24'0 0.0
2018-Feb-16 22:59N 34°42' E 135°24'0 0.0
2018-Feb-16 22:26N 34°42' E 135°24'0 0.0
2018-Feb-16 21:56N 34°42' E 135°24'0 0.0
2018-Feb-16 21:26N 34°42' E 135°24'0 0.8
2018-Feb-16 21:00N 34°42' E 135°24'2 3.7
2018-Feb-16 20:30N 34°41' E 135°22'510.4
2018-Feb-16 20:00N 34°38' E 135°17'510.8
2018-Feb-16 19:30N 34°36' E 135°11'611.2
2018-Feb-16 19:01N 34°35' E 135°04'713.0
2018-Feb-16 18:30N 34°36' E 134°56'713.2
2018-Feb-16 18:00N 34°33' E 134°49'611.5
2018-Feb-16 17:26N 34°31' E 134°41'511.1
2018-Feb-16 16:57N 34°29' E 134°35'9610.1
2018-Feb-16 07:22N 34°05' E 132°42'4 9.7
2018-Feb-16 07:00N 34°03' E 132°39'43 8.4
2018-Feb-16 01:54N 33°56' E 131°48'510.0
2018-Feb-16 01:25N 33°60' E 131°45'1 0.0
2018-Feb-14 07:56N 34°01' E 131°46'4 9.6
2018-Feb-14 07:28N 33°57' E 131°47'43 5.2
2018-Feb-13 23:08N 33°59' E 132°39'2 8.6
2018-Feb-13 22:56N 34°00' E 132°41'95 9.7
2018-Feb-13 13:08N 34°28' E 134°30'210.8
2018-Feb-13 13:00N 34°29' E 134°32'510.4
2018-Feb-13 12:29N 34°31' E 134°38'510.4
2018-Feb-13 11:59N 34°33' E 134°43'510.8
2018-Feb-13 11:29N 34°35' E 134°50'611.7
2018-Feb-13 11:00N 34°37' E 134°56'611.3
2018-Feb-13 10:30N 34°37' E 135°03'510.9
2018-Feb-13 10:00N 34°37' E 135°09'510.4
2018-Feb-13 09:30N 34°37' E 135°16'510.2
2018-Feb-13 09:00N 34°36' E 135°22'5 9.4
2018-Feb-13 08:30N 34°34' E 135°27'0 0.8
2018-Feb-13 07:58N 34°34' E 135°27'0 0.0
2018-Feb-13 07:28N 34°34' E 135°27'0 0.0
2018-Feb-13 06:58N 34°34' E 135°27'0 0.0
2018-Feb-13 06:28N 34°34' E 135°27'0 0.0
2018-Feb-13 05:58N 34°34' E 135°27'0 0.0
2018-Feb-13 05:28N 34°34' E 135°27'0 0.0
2018-Feb-13 04:58N 34°34' E 135°27'0 0.0
2018-Feb-13 04:28N 34°34' E 135°27'0 0.0
2018-Feb-13 03:58N 34°34' E 135°27'0 0.0
2018-Feb-13 03:28N 34°34' E 135°27'0 0.0
2018-Feb-13 02:58N 34°34' E 135°27'0 0.0
2018-Feb-13 02:28N 34°34' E 135°27'0 0.0
2018-Feb-13 01:55N 34°34' E 135°27'0 0.0
2018-Feb-13 01:28N 34°34' E 135°27'0 0.0
2018-Feb-13 00:58N 34°34' E 135°27'0 0.0
2018-Feb-13 00:28N 34°34' E 135°27'0 0.0
2018-Feb-12 23:58N 34°34' E 135°27'0 0.0
2018-Feb-12 23:28N 34°34' E 135°27'0 0.0
2018-Feb-12 22:58N 34°34' E 135°27'0 0.0
2018-Feb-12 22:28N 34°34' E 135°27'0 0.0
2018-Feb-12 21:58N 34°34' E 135°27'0 0.0
2018-Feb-12 21:28N 34°34' E 135°27'0 0.0
2018-Feb-12 20:58N 34°34' E 135°27'0 0.0
2018-Feb-12 20:28N 34°34' E 135°27'0 0.0
2018-Feb-12 19:58N 34°34' E 135°27'0 0.0
2018-Feb-12 19:28N 34°34' E 135°27'0 0.5
2018-Feb-12 19:00N 34°34' E 135°27'0 0.3
2018-Feb-12 18:29N 34°34' E 135°27'0 0.1
2018-Feb-12 17:59N 34°34' E 135°27'0 0.0
2018-Feb-12 17:29N 34°34' E 135°27'0 0.0
2018-Feb-12 16:41N 34°34' E 135°27'0 0.2
2018-Feb-12 16:29N 34°34' E 135°27'0 0.0
2018-Feb-12 15:59N 34°34' E 135°27'0 0.0
2018-Feb-12 15:17N 34°34' E 135°27'0 0.2
2018-Feb-12 14:59N 34°34' E 135°27'0 0.1
2018-Feb-12 14:23N 34°34' E 135°27'0 0.1
2018-Feb-12 13:57N 34°34' E 135°27'0 0.6
2018-Feb-12 13:29N 34°34' E 135°27'0 0.0
2018-Feb-12 12:59N 34°34' E 135°27'0 0.0
2018-Feb-12 12:29N 34°34' E 135°27'0 0.0
2018-Feb-12 11:59N 34°34' E 135°27'0 0.0
2018-Feb-12 11:29N 34°34' E 135°27'0 0.0
2018-Feb-12 10:59N 34°34' E 135°27'0 0.0
2018-Feb-12 10:29N 34°34' E 135°27'0 0.0
2018-Feb-12 09:59N 34°34' E 135°27'0 0.0
2018-Feb-12 09:29N 34°34' E 135°27'0 0.0
2018-Feb-12 08:59N 34°34' E 135°27'0 0.0
2018-Feb-12 08:28N 34°34' E 135°27'0 0.0
2018-Feb-12 07:58N 34°34' E 135°27'0 0.0
2018-Feb-12 07:28N 34°34' E 135°27'0 0.0
2018-Feb-12 06:58N 34°34' E 135°27'0 0.0
2018-Feb-12 06:28N 34°34' E 135°27'0 0.0
2018-Feb-12 05:58N 34°34' E 135°27'0 0.0
2018-Feb-12 05:28N 34°34' E 135°27'0 0.0
2018-Feb-12 04:58N 34°34' E 135°27'0 0.1
2018-Feb-12 04:26N 34°34' E 135°27'4 8.3
2018-Feb-12 03:58N 34°36' E 135°23'510.6
2018-Feb-12 03:30N 34°36' E 135°17'510.9
2018-Feb-12 03:00N 34°35' E 135°11'610.9
2018-Feb-12 02:27N 34°35' E 135°03'511.2
2018-Feb-12 02:00N 34°36' E 134°57'610.4
2018-Feb-12 01:24N 34°34' E 134°50'4 9.7
2018-Feb-12 01:00N 34°32' E 134°46'510.2
2018-Feb-12 00:30N 34°30' E 134°40'  
Track history (hours):
 
Tides and Currents Weather Stations Pressure Air Temp Water Temp Dewpoint Dewpoint Depression Visibility Wind Speed Wind Dir Waves Ship Positions

Tetsuryumaru

Last reported at 2018-Feb-20 06:31 UTC. Time now 2018-Feb-20 07:24 UTC.
Position N 34°05' E 132°42'.

Length 60 m.

Type: Cargo ship. MMSI: 431004505.

Date/timePositionNaut miles runAvg speedWind from/ knotsBaromVisibWave heightAir tempDewpointWater temp
2018-Feb-20 06:31N 34°05' E 132°42'010.6
2018-Feb-20 06:29N 34°05' E 132°42'510.3
2018-Feb-20 05:59N 34°01' E 132°37'41 9.2
2018-Feb-20 01:35N 33°56' E 131°48'110.7
2018-Feb-20 01:27N 33°57' E 131°47'4 8.5
2018-Feb-20 00:56N 34°01' E 131°46'2 0.2
2018-Feb-19 13:34N 34°03' E 131°47'0 1.9
2018-Feb-19 13:25N 34°03' E 131°47'4 9.2
2018-Feb-19 12:59N 33°59' E 131°45'4310.0
2018-Feb-19 08:43N 34°01' E 132°36'312.5
2018-Feb-19 08:30N 34°02' E 132°39'105 3.1
2018-Feb-17 22:40N 34°42' E 134°37'311.1
2018-Feb-17 22:24N 34°42' E 134°40'7 0.6
2018-Feb-17 11:21N 34°43' E 134°48'1 1.5
2018-Feb-17 10:22N 34°42' E 134°50'0 0.1
2018-Feb-17 09:58N 34°42' E 134°50'5 9.3
2018-Feb-17 09:26N 34°38' E 134°54'511.1
2018-Feb-17 09:00N 34°38' E 134°60'5 8.9
2018-Feb-17 08:30N 34°36' E 135°05'510.1
2018-Feb-17 08:00N 34°37' E 135°11'510.4
2018-Feb-17 07:30N 34°38' E 135°17'510.9
2018-Feb-17 07:00N 34°41' E 135°23'1 1.8
2018-Feb-17 06:17N 34°42' E 135°24'0 0.0
2018-Feb-17 05:59N 34°42' E 135°24'0 0.0
2018-Feb-17 05:29N 34°42' E 135°24'0 0.0
2018-Feb-17 04:59N 34°42' E 135°24'0 0.0
2018-Feb-17 04:29N 34°42' E 135°24'0 0.0
2018-Feb-17 03:59N 34°42' E 135°24'0 0.0
2018-Feb-17 03:29N 34°42' E 135°24'0 0.0
2018-Feb-17 02:59N 34°42' E 135°24'0 0.0
2018-Feb-17 02:29N 34°42' E 135°24'0 0.0
2018-Feb-17 01:59N 34°42' E 135°24'0 0.0
2018-Feb-17 01:29N 34°42' E 135°24'0 0.0
2018-Feb-17 00:50N 34°42' E 135°24'0 0.0
2018-Feb-17 00:17N 34°42' E 135°24'0 0.0
2018-Feb-16 23:59N 34°42' E 135°24'0 0.0
2018-Feb-16 23:29N 34°42' E 135°24'0 0.0
2018-Feb-16 22:59N 34°42' E 135°24'0 0.0
2018-Feb-16 22:26N 34°42' E 135°24'0 0.0
2018-Feb-16 21:56N 34°42' E 135°24'0 0.0
2018-Feb-16 21:26N 34°42' E 135°24'0 0.8
2018-Feb-16 21:00N 34°42' E 135°24'2 3.7
2018-Feb-16 20:30N 34°41' E 135°22'510.4
2018-Feb-16 20:00N 34°38' E 135°17'510.8
2018-Feb-16 19:30N 34°36' E 135°11'611.2
2018-Feb-16 19:01N 34°35' E 135°04'713.0
2018-Feb-16 18:30N 34°36' E 134°56'713.2
2018-Feb-16 18:00N 34°33' E 134°49'611.5
2018-Feb-16 17:26N 34°31' E 134°41'511.1
2018-Feb-16 16:57N 34°29' E 134°35'9610.1
2018-Feb-16 07:22N 34°05' E 132°42'4 9.7
2018-Feb-16 07:00N 34°03' E 132°39'43 8.4
2018-Feb-16 01:54N 33°56' E 131°48'510.0
2018-Feb-16 01:25N 33°60' E 131°45'1 0.0
2018-Feb-14 07:56N 34°01' E 131°46'4 9.6
2018-Feb-14 07:28N 33°57' E 131°47'43 5.2
2018-Feb-13 23:08N 33°59' E 132°39'2 8.6
2018-Feb-13 22:56N 34°00' E 132°41'95 9.7
2018-Feb-13 13:08N 34°28' E 134°30'210.8
2018-Feb-13 13:00N 34°29' E 134°32'510.4
2018-Feb-13 12:29N 34°31' E 134°38'510.4
2018-Feb-13 11:59N 34°33' E 134°43'510.8
2018-Feb-13 11:29N 34°35' E 134°50'611.7
2018-Feb-13 11:00N 34°37' E 134°56'611.3
2018-Feb-13 10:30N 34°37' E 135°03'510.9
2018-Feb-13 10:00N 34°37' E 135°09'510.4
2018-Feb-13 09:30N 34°37' E 135°16'510.2
2018-Feb-13 09:00N 34°36' E 135°22'5 9.4
2018-Feb-13 08:30N 34°34' E 135°27'0 0.8
2018-Feb-13 07:58N 34°34' E 135°27'0 0.0
2018-Feb-13 07:28N 34°34' E 135°27'0 0.0
2018-Feb-13 06:58N 34°34' E 135°27'0 0.0
2018-Feb-13 06:28N 34°34' E 135°27'0 0.0
2018-Feb-13 05:58N 34°34' E 135°27'0 0.0
2018-Feb-13 05:28N 34°34' E 135°27'0 0.0
2018-Feb-13 04:58N 34°34' E 135°27'0 0.0
2018-Feb-13 04:28N 34°34' E 135°27'0 0.0
2018-Feb-13 03:58N 34°34' E 135°27'0 0.0
2018-Feb-13 03:28N 34°34' E 135°27'0 0.0
2018-Feb-13 02:58N 34°34' E 135°27'0 0.0
2018-Feb-13 02:28N 34°34' E 135°27'0 0.0
2018-Feb-13 01:55N 34°34' E 135°27'0 0.0
2018-Feb-13 01:28N 34°34' E 135°27'0 0.0
2018-Feb-13 00:58N 34°34' E 135°27'0 0.0
2018-Feb-13 00:28N 34°34' E 135°27'0 0.0
2018-Feb-12 23:58N 34°34' E 135°27'0 0.0
2018-Feb-12 23:28N 34°34' E 135°27'0 0.0
2018-Feb-12 22:58N 34°34' E 135°27'0 0.0
2018-Feb-12 22:28N 34°34' E 135°27'0 0.0
2018-Feb-12 21:58N 34°34' E 135°27'0 0.0
2018-Feb-12 21:28N 34°34' E 135°27'0 0.0
2018-Feb-12 20:58N 34°34' E 135°27'0 0.0
2018-Feb-12 20:28N 34°34' E 135°27'0 0.0
2018-Feb-12 19:58N 34°34' E 135°27'0 0.0
2018-Feb-12 19:28N 34°34' E 135°27'0 0.5
2018-Feb-12 19:00N 34°34' E 135°27'0 0.3
2018-Feb-12 18:29N 34°34' E 135°27'0 0.1
2018-Feb-12 17:59N 34°34' E 135°27'0 0.0
2018-Feb-12 17:29N 34°34' E 135°27'0 0.0
2018-Feb-12 16:41N 34°34' E 135°27'0 0.2
2018-Feb-12 16:29N 34°34' E 135°27'0 0.0
2018-Feb-12 15:59N 34°34' E 135°27'0 0.0
2018-Feb-12 15:17N 34°34' E 135°27'0 0.2
2018-Feb-12 14:59N 34°34' E 135°27'0 0.1
2018-Feb-12 14:23N 34°34' E 135°27'0 0.1
2018-Feb-12 13:57N 34°34' E 135°27'0 0.6
2018-Feb-12 13:29N 34°34' E 135°27'0 0.0
2018-Feb-12 12:59N 34°34' E 135°27'0 0.0
2018-Feb-12 12:29N 34°34' E 135°27'0 0.0
2018-Feb-12 11:59N 34°34' E 135°27'0 0.0
2018-Feb-12 11:29N 34°34' E 135°27'0 0.0
2018-Feb-12 10:59N 34°34' E 135°27'0 0.0
2018-Feb-12 10:29N 34°34' E 135°27'0 0.0
2018-Feb-12 09:59N 34°34' E 135°27'0 0.0
2018-Feb-12 09:29N 34°34' E 135°27'0 0.0
2018-Feb-12 08:59N 34°34' E 135°27'0 0.0
2018-Feb-12 08:28N 34°34' E 135°27'0 0.0
2018-Feb-12 07:58N 34°34' E 135°27'0 0.0
2018-Feb-12 07:28N 34°34' E 135°27'0 0.0
2018-Feb-12 06:58N 34°34' E 135°27'0 0.0
2018-Feb-12 06:28N 34°34' E 135°27'0 0.0
2018-Feb-12 05:58N 34°34' E 135°27'0 0.0
2018-Feb-12 05:28N 34°34' E 135°27'0 0.0
2018-Feb-12 04:58N 34°34' E 135°27'0 0.1
2018-Feb-12 04:26N 34°34' E 135°27'4 8.3
2018-Feb-12 03:58N 34°36' E 135°23'510.6
2018-Feb-12 03:30N 34°36' E 135°17'510.9
2018-Feb-12 03:00N 34°35' E 135°11'610.9
2018-Feb-12 02:27N 34°35' E 135°03'511.2
2018-Feb-12 02:00N 34°36' E 134°57'610.4
2018-Feb-12 01:24N 34°34' E 134°50'4 9.7
2018-Feb-12 01:00N 34°32' E 134°46'510.2
2018-Feb-12 00:30N 34°30' E 134°40'  

Dump ship's entire track history